createdAt,value
2023-03-12T05:00:43.234Z,3.30
2023-03-12T05:01:43.144Z,1.70
2023-03-12T05:02:43.181Z,3.50
2023-03-12T05:03:43.135Z,1.70
2023-03-12T05:04:43.112Z,2.40
2023-03-12T05:05:43.149Z,2.10
2023-03-12T05:06:43.090Z,2.00
2023-03-12T05:07:43.068Z,1.50
2023-03-12T05:08:43.069Z,1.70
2023-03-12T05:09:43.028Z,1.90
2023-03-12T05:10:43.027Z,3.00
2023-03-12T05:11:43.072Z,1.70
2023-03-12T05:12:43.008Z,2.00
2023-03-12T05:13:43.001Z,3.50
2023-03-12T05:14:42.992Z,2.00
2023-03-12T05:15:42.954Z,3.90
2023-03-12T05:16:43.024Z,2.60
2023-03-12T05:17:42.981Z,1.90
2023-03-12T05:18:42.944Z,1.60
2023-03-12T05:19:42.928Z,1.80
2023-03-12T05:20:42.926Z,1.50
2023-03-12T05:21:42.873Z,1.30
2023-03-12T05:22:42.892Z,1.60
2023-03-12T05:23:42.915Z,2.30
2023-03-12T05:24:42.873Z,2.80
2023-03-12T05:25:42.831Z,2.80
2023-03-12T05:26:42.838Z,1.30
2023-03-12T05:27:42.807Z,2.20
2023-03-12T05:28:42.850Z,2.80
2023-03-12T05:29:42.770Z,1.90
2023-03-12T05:30:42.783Z,2.60
2023-03-12T05:31:42.801Z,2.70
2023-03-12T05:32:42.844Z,2.50
2023-03-12T05:33:52.300Z,5.80
2023-03-12T05:34:42.744Z,1.70
2023-03-12T05:35:42.779Z,2.40
2023-03-12T05:36:42.708Z,3.50
2023-03-12T05:37:42.712Z,1.70
2023-03-12T05:38:42.716Z,2.20
2023-03-12T05:39:42.729Z,2.40
2023-03-12T05:40:42.673Z,2.60
2023-03-12T05:41:42.631Z,1.30
2023-03-12T05:42:42.638Z,3.50
2023-03-12T05:43:42.608Z,1.20
2023-03-12T05:44:42.610Z,1.90
2023-03-12T05:45:42.657Z,2.00
2023-03-12T05:46:42.587Z,1.80
2023-03-12T05:47:42.549Z,1.60
2023-03-12T05:48:42.575Z,1.20
2023-03-12T05:49:42.532Z,2.10
2023-03-12T05:50:42.612Z,1.90
2023-03-12T05:51:42.525Z,1.50
2023-03-12T05:52:42.518Z,1.50
2023-03-12T05:53:42.473Z,3.10
2023-03-12T05:54:42.486Z,2.50
2023-03-12T05:55:42.442Z,1.70
2023-03-12T05:56:42.524Z,1.30
2023-03-12T05:57:42.424Z,2.10
2023-03-12T05:58:42.509Z,3.30
2023-03-12T05:59:42.396Z,2.30
2023-03-12T06:00:42.448Z,1.40
2023-03-12T06:01:42.377Z,2.20
2023-03-12T06:02:42.382Z,2.30
2023-03-12T06:03:42.356Z,1.10
2023-03-12T06:04:42.395Z,2.50
2023-03-12T06:05:42.318Z,2.20
2023-03-12T06:06:42.328Z,1.90
2023-03-12T06:07:42.293Z,2.70
2023-03-12T06:08:42.292Z,3.00
2023-03-12T06:09:42.278Z,1.20
2023-03-12T06:10:42.340Z,1.60
2023-03-12T06:11:42.248Z,1.40
2023-03-12T06:12:42.262Z,1.80
2023-03-12T06:13:42.223Z,2.20
2023-03-12T06:14:42.223Z,1.40
2023-03-12T06:15:42.192Z,2.70
2023-03-12T06:16:42.312Z,3.10
2023-03-12T06:17:42.164Z,8.00
2023-03-12T06:18:42.181Z,1.30
2023-03-12T06:19:42.133Z,2.30
2023-03-12T06:20:42.143Z,1.40
2023-03-12T06:21:42.113Z,4.00
2023-03-12T06:22:42.178Z,1.40
2023-03-12T06:23:42.087Z,2.00
2023-03-12T06:24:42.180Z,2.20
2023-03-12T06:25:42.067Z,1.40
2023-03-12T06:26:42.079Z,1.30
2023-03-12T06:27:42.051Z,1.80
2023-03-12T06:28:42.055Z,1.90
2023-03-12T06:29:42.023Z,1.60
2023-03-12T06:30:42.074Z,2.30
2023-03-12T06:31:42.084Z,1.70
2023-03-12T06:32:42.087Z,1.60
2023-03-12T06:33:41.970Z,1.90
2023-03-12T06:34:42.008Z,1.80
2023-03-12T06:35:42.048Z,1.50
2023-03-12T06:36:41.943Z,1.70
2023-03-12T06:37:41.920Z,1.40
2023-03-12T06:38:41.913Z,1.60
2023-03-12T06:39:41.880Z,1.60
2023-03-12T06:40:41.901Z,1.50
2023-03-12T06:41:42.033Z,1.40
2023-03-12T06:42:41.874Z,2.90
2023-03-12T06:43:41.845Z,1.70
2023-03-12T06:44:41.844Z,1.00
2023-03-12T06:45:41.810Z,1.20
2023-03-12T06:46:42.791Z,1.40
2023-03-12T06:47:41.834Z,2.80
2023-03-12T06:48:41.791Z,2.20
2023-03-12T06:49:41.783Z,1.90
2023-03-12T06:50:41.775Z,1.50
2023-03-12T06:51:41.738Z,1.70
2023-03-12T06:52:41.733Z,1.40
2023-03-12T06:53:42.578Z,3.40
2023-03-12T06:54:41.716Z,1.30
2023-03-12T06:55:41.690Z,1.70
2023-03-12T06:56:41.687Z,1.80
2023-03-12T06:57:41.657Z,1.40
2023-03-12T06:58:41.661Z,3.40
2023-03-12T06:59:41.707Z,1.10
2023-03-12T07:00:41.664Z,1.80
2023-03-12T07:01:41.607Z,1.90
2023-03-12T07:02:41.617Z,2.30
2023-03-12T07:03:41.579Z,1.50
2023-03-12T07:04:41.637Z,1.50
2023-03-12T07:05:41.619Z,2.40
2023-03-12T07:06:41.568Z,1.80
2023-03-12T07:07:41.536Z,1.40
2023-03-12T07:08:41.559Z,2.20
2023-03-12T07:09:41.522Z,1.80
2023-03-12T07:10:41.549Z,1.80
2023-03-12T07:11:41.479Z,1.40
2023-03-12T07:12:41.505Z,1.40
2023-03-12T07:13:41.472Z,1.30
2023-03-12T07:14:41.471Z,1.80
2023-03-12T07:15:41.521Z,1.80
2023-03-12T07:16:41.456Z,2.00
2023-03-12T07:17:41.409Z,1.90
2023-03-12T07:18:41.416Z,1.30
2023-03-12T07:19:41.389Z,3.90
2023-03-12T07:20:41.389Z,1.80
2023-03-12T07:21:41.428Z,1.20
2023-03-12T07:22:41.387Z,1.50
2023-03-12T07:23:41.337Z,1.00
2023-03-12T07:24:41.342Z,2.10
2023-03-12T07:25:41.381Z,2.60
2023-03-12T07:26:41.324Z,1.30
2023-03-12T07:27:41.337Z,1.70
2023-03-12T07:28:41.295Z,1.40
2023-03-12T07:29:41.269Z,1.10
2023-03-12T07:30:41.276Z,1.20
2023-03-12T07:31:41.439Z,1.90
2023-03-12T07:32:41.292Z,2.30
2023-03-12T07:33:41.352Z,1.90
2023-03-12T07:34:41.215Z,2.10
2023-03-12T07:35:41.271Z,1.90
2023-03-12T07:36:41.321Z,1.40
2023-03-12T07:37:41.153Z,2.50
2023-03-12T07:38:41.162Z,1.40
2023-03-12T07:39:41.250Z,1.50
2023-03-12T07:40:41.193Z,1.10
2023-03-12T07:41:41.099Z,2.70
2023-03-12T07:42:41.117Z,1.60
2023-03-12T07:43:41.110Z,3.30
2023-03-12T07:44:41.079Z,3.80
2023-03-12T07:45:41.108Z,1.30
2023-03-12T07:46:41.182Z,2.90
2023-03-12T07:47:41.088Z,2.60
2023-03-12T07:48:44.033Z,3.60
2023-03-12T07:49:41.010Z,1.70
2023-03-12T07:50:41.061Z,1.60
2023-03-12T07:51:40.976Z,3.00
2023-03-12T07:52:40.973Z,1.70
2023-03-12T07:53:40.946Z,1.20
2023-03-12T07:54:40.983Z,1.70
2023-03-12T07:55:41.084Z,1.50
2023-03-12T07:56:40.946Z,2.40
2023-03-12T07:57:40.950Z,4.40
2023-03-12T07:58:41.007Z,1.90
2023-03-12T07:59:40.882Z,1.90
2023-03-12T08:00:40.932Z,2.10
2023-03-12T08:01:40.896Z,4.10
2023-03-12T08:02:40.954Z,1.20
2023-03-12T08:03:41.078Z,1.50
2023-03-12T08:04:41.017Z,2.60
2023-03-12T08:05:41.190Z,1.20
2023-03-12T08:06:41.166Z,1.80
2023-03-12T08:07:40.777Z,1.80
2023-03-12T08:08:40.842Z,1.50
2023-03-12T08:09:40.745Z,1.30
2023-03-12T08:10:40.756Z,1.60
2023-03-12T08:11:40.817Z,1.30
2023-03-12T08:12:40.721Z,1.40
2023-03-12T08:13:40.707Z,3.00
2023-03-12T08:14:40.729Z,1.40
2023-03-12T08:15:40.662Z,2.00
2023-03-12T08:16:40.765Z,2.80
2023-03-12T08:17:40.641Z,1.50
2023-03-12T08:18:40.649Z,3.90
2023-03-12T08:19:40.618Z,4.10
2023-03-12T08:20:40.611Z,1.80
2023-03-12T08:21:40.632Z,2.70
2023-03-12T08:22:40.590Z,3.20
2023-03-12T08:23:40.568Z,1.60
2023-03-12T08:24:40.565Z,1.60
2023-03-12T08:25:40.528Z,1.40
2023-03-12T08:26:40.598Z,1.90
2023-03-12T08:27:40.503Z,3.00
2023-03-12T08:28:40.526Z,3.50
2023-03-12T08:29:40.491Z,2.00
2023-03-12T08:30:40.489Z,3.00
2023-03-12T08:31:50.400Z,1.70
2023-03-12T08:32:41.498Z,3.20
2023-03-12T08:33:40.452Z,2.40
2023-03-12T08:34:40.437Z,3.80
2023-03-12T08:35:40.484Z,2.50
2023-03-12T08:36:40.400Z,2.90
2023-03-12T08:37:40.417Z,2.10
2023-03-12T08:38:40.387Z,2.80
2023-03-12T08:39:40.345Z,2.90
2023-03-12T08:40:40.346Z,1.80
2023-03-12T08:41:40.396Z,2.00
2023-03-12T08:42:40.304Z,3.30
2023-03-12T08:43:40.316Z,1.70
2023-03-12T08:44:40.286Z,3.70
2023-03-12T08:45:40.465Z,2.70
2023-03-12T08:46:40.279Z,2.90
2023-03-12T08:47:40.267Z,2.10
2023-03-12T08:48:40.236Z,2.50
2023-03-12T08:49:40.257Z,1.70
2023-03-12T08:50:40.209Z,2.60
2023-03-12T08:51:40.277Z,2.20
2023-03-12T08:52:40.188Z,2.70
2023-03-12T08:53:40.193Z,2.40
2023-03-12T08:54:40.160Z,3.20
2023-03-12T08:55:40.246Z,1.70
2023-03-12T08:56:40.143Z,2.60
2023-03-12T08:57:40.190Z,2.60
2023-03-12T08:58:40.106Z,2.80
2023-03-12T08:59:40.115Z,1.70
2023-03-12T09:00:40.091Z,3.00
2023-03-12T09:01:43.024Z,1.90
2023-03-12T09:02:40.121Z,1.60
2023-03-12T09:03:40.105Z,2.50
2023-03-12T09:04:40.099Z,1.70
2023-03-12T09:05:40.044Z,3.20
2023-03-12T09:06:40.021Z,1.80
2023-03-12T09:07:40.028Z,2.20
2023-03-12T09:08:39.974Z,2.70
2023-03-12T09:09:40.024Z,1.70
2023-03-12T09:10:40.032Z,2.20
2023-03-12T09:11:39.953Z,3.20
2023-03-12T09:12:39.965Z,2.10
2023-03-12T09:13:58.083Z,2.70
2023-03-12T09:15:03.388Z,2.10
2023-03-12T09:15:41.016Z,2.40
2023-03-12T09:16:39.911Z,4.20
2023-03-12T09:17:39.881Z,3.80
2023-03-12T09:18:40.076Z,2.70
2023-03-12T09:19:39.992Z,2.20
2023-03-12T09:20:39.818Z,3.90
2023-03-12T09:21:39.870Z,1.90
2023-03-12T09:22:39.789Z,2.20
2023-03-12T09:23:39.794Z,3.10
2023-03-12T09:24:39.769Z,1.60
2023-03-12T09:25:39.820Z,2.30
2023-03-12T09:26:39.736Z,3.20
2023-03-12T09:27:39.749Z,1.80
2023-03-12T09:28:39.725Z,3.10
2023-03-12T09:29:57.104Z,2.30
2023-03-12T09:30:40.781Z,1.60
2023-03-12T09:31:39.716Z,2.20
2023-03-12T09:32:39.723Z,1.80
2023-03-12T09:33:39.683Z,3.50
2023-03-12T09:34:39.633Z,2.60
2023-03-12T09:35:39.667Z,1.40
2023-03-12T09:36:39.643Z,2.50
2023-03-12T09:37:39.612Z,3.10
2023-03-12T09:38:39.579Z,2.30
2023-03-12T09:39:39.581Z,6.90
2023-03-12T09:40:39.630Z,1.90
2023-03-12T09:41:39.581Z,1.80
2023-03-12T09:42:39.527Z,2.70
2023-03-12T09:43:39.542Z,3.00
2023-03-12T09:44:39.488Z,3.50
2023-03-12T09:45:39.498Z,3.20
2023-03-12T09:46:39.530Z,2.40
2023-03-12T09:47:39.486Z,3.70
2023-03-12T09:48:39.445Z,2.60
2023-03-12T09:49:39.472Z,5.00
2023-03-12T09:50:39.435Z,1.70
2023-03-12T09:51:39.448Z,2.20
2023-03-12T09:52:39.459Z,2.60
2023-03-12T09:53:39.455Z,2.10
2023-03-12T09:54:39.386Z,3.10
2023-03-12T09:55:40.216Z,1.70
2023-03-12T09:56:39.881Z,3.60
2023-03-12T09:57:39.912Z,3.80
2023-03-12T09:58:39.318Z,2.70
2023-03-12T09:59:39.349Z,2.40
2023-03-12T10:00:39.298Z,1.70
2023-03-12T10:01:39.318Z,1.70
2023-03-12T10:02:39.315Z,2.60
2023-03-12T10:03:39.327Z,2.50
2023-03-12T10:04:56.355Z,2.20
2023-03-12T10:05:40.257Z,2.20
2023-03-12T10:06:39.230Z,2.90
2023-03-12T10:07:39.271Z,2.00
2023-03-12T10:08:39.215Z,1.10
2023-03-12T10:09:39.208Z,2.10
2023-03-12T10:10:39.166Z,1.40
2023-03-12T10:11:39.195Z,2.80
2023-03-12T10:12:39.146Z,1.80
2023-03-12T10:13:39.204Z,1.80
2023-03-12T10:14:39.126Z,2.30
2023-03-12T10:15:39.144Z,2.60
2023-03-12T10:16:39.097Z,1.20
2023-03-12T10:17:39.119Z,2.20
2023-03-12T10:18:39.165Z,2.40
2023-03-12T10:19:39.090Z,2.50
2023-03-12T10:20:39.138Z,2.00
2023-03-12T10:21:39.051Z,1.90
2023-03-12T10:22:39.013Z,2.40
2023-03-12T10:23:39.024Z,3.00
2023-03-12T10:24:39.117Z,2.10
2023-03-12T10:25:39.002Z,2.30
2023-03-12T10:26:39.267Z,2.20
2023-03-12T10:27:39.013Z,1.70
2023-03-12T10:28:38.963Z,2.70
2023-03-12T10:29:38.953Z,2.60
2023-03-12T10:30:39.064Z,1.60
2023-03-12T10:31:38.933Z,3.10
2023-03-12T10:32:38.947Z,1.90
2023-03-12T10:33:38.925Z,2.70
2023-03-12T10:34:38.860Z,1.90
2023-03-12T10:35:38.927Z,1.50
2023-03-12T10:36:38.884Z,1.10
2023-03-12T10:37:38.846Z,1.60
2023-03-12T10:38:38.810Z,2.30
2023-03-12T10:39:38.820Z,2.10
2023-03-12T10:40:38.783Z,2.70
2023-03-12T10:41:38.789Z,2.20
2023-03-12T10:42:38.794Z,1.50
2023-03-12T10:43:38.767Z,3.50
2023-03-12T10:44:38.730Z,1.40
2023-03-12T10:45:38.744Z,1.80
2023-03-12T10:46:38.749Z,2.30
2023-03-12T10:47:38.708Z,1.80
2023-03-12T10:48:38.730Z,2.10
2023-03-12T10:49:38.668Z,1.70
2023-03-12T10:50:38.674Z,1.60
2023-03-12T10:51:38.650Z,2.30
2023-03-12T10:52:38.616Z,3.10
2023-03-12T10:53:38.646Z,3.30
2023-03-12T10:54:38.622Z,1.50
2023-03-12T10:55:38.643Z,1.60
2023-03-12T10:56:38.579Z,2.80
2023-03-12T10:57:38.572Z,2.90
2023-03-12T10:58:38.565Z,1.30
2023-03-12T10:59:38.651Z,0.80
2023-03-12T11:00:38.577Z,1.00
2023-03-12T11:01:38.568Z,1.70
2023-03-12T11:02:38.481Z,1.60
2023-03-12T11:03:38.555Z,0.80
2023-03-12T11:04:38.460Z,1.10
2023-03-12T11:05:38.559Z,1.30
2023-03-12T11:06:38.462Z,1.00
2023-03-12T11:07:38.445Z,2.80
2023-03-12T11:08:38.407Z,0.90
2023-03-12T11:09:38.523Z,0.80
2023-03-12T11:10:38.386Z,1.40
2023-03-12T11:11:38.418Z,0.70
2023-03-12T11:12:38.381Z,0.60
2023-03-12T11:13:38.367Z,0.90
2023-03-12T11:14:38.393Z,1.10
2023-03-12T11:15:38.482Z,1.00
2023-03-12T11:16:38.313Z,1.50
2023-03-12T11:17:38.323Z,0.80
2023-03-12T11:18:38.314Z,1.60
2023-03-12T11:19:38.390Z,1.90
2023-03-12T11:20:38.290Z,1.00
2023-03-12T11:21:38.281Z,0.90
2023-03-12T11:22:38.235Z,1.00
2023-03-12T11:23:38.289Z,0.80
2023-03-12T11:24:38.237Z,0.80
2023-03-12T11:25:38.341Z,1.00
2023-03-12T11:26:38.168Z,1.10
2023-03-12T11:27:38.179Z,1.20
2023-03-12T11:28:38.139Z,1.10
2023-03-12T11:29:38.195Z,0.90
2023-03-12T11:30:38.184Z,0.80
2023-03-12T11:31:38.208Z,0.80
2023-03-12T11:32:38.123Z,0.50
2023-03-12T11:33:38.102Z,0.80
2023-03-12T11:34:38.146Z,0.60
2023-03-12T11:35:38.109Z,0.60
2023-03-12T11:36:38.043Z,0.90
2023-03-12T11:37:40.247Z,0.70
2023-03-12T11:38:38.021Z,0.60
2023-03-12T11:39:38.033Z,0.50
2023-03-12T11:40:38.035Z,0.50
2023-03-12T11:41:38.016Z,0.70
2023-03-12T11:42:37.969Z,0.40
2023-03-12T11:43:43.739Z,0.30
2023-03-12T11:44:38.986Z,0.30
2023-03-12T11:45:37.996Z,0.30
2023-03-12T11:46:37.929Z,0.30
2023-03-12T11:47:37.982Z,0.30
2023-03-12T11:48:37.905Z,0.40
2023-03-12T11:49:37.891Z,0.60
2023-03-12T11:50:37.876Z,0.30
2023-03-12T11:51:37.907Z,0.30
2023-03-12T11:52:37.851Z,0.30
2023-03-12T11:53:37.827Z,0.40
2023-03-12T11:54:37.808Z,0.20
2023-03-12T11:55:37.808Z,0.30
2023-03-12T11:56:37.773Z,0.30
2023-03-12T11:57:37.858Z,0.20
2023-03-12T11:58:37.747Z,0.30
2023-03-12T11:59:37.839Z,0.20
2023-03-12T12:00:37.797Z,0.30
2023-03-12T12:01:37.767Z,0.20
2023-03-12T12:02:37.693Z,0.30
2023-03-12T12:03:37.720Z,0.20
2023-03-12T12:04:37.667Z,0.40
2023-03-12T12:05:37.755Z,0.20
2023-03-12T12:06:37.648Z,0.30
2023-03-12T12:07:37.669Z,0.20
2023-03-12T12:08:37.609Z,0.40
2023-03-12T12:09:37.651Z,0.20
2023-03-12T12:10:37.586Z,0.30
2023-03-12T12:11:37.646Z,0.30
2023-03-12T12:12:37.607Z,0.20
2023-03-12T12:13:37.592Z,0.40
2023-03-12T12:14:37.569Z,0.30
2023-03-12T12:15:37.596Z,1.00
2023-03-12T12:16:37.550Z,0.20
2023-03-12T12:17:37.567Z,0.30
2023-03-12T12:18:37.507Z,0.20
2023-03-12T12:19:37.529Z,0.40
2023-03-12T12:20:37.458Z,0.30
2023-03-12T12:21:37.504Z,0.50
2023-03-12T12:22:37.444Z,0.30
2023-03-12T12:23:37.816Z,0.30
2023-03-12T12:24:37.414Z,0.20
2023-03-12T12:25:37.420Z,0.30
2023-03-12T12:26:37.391Z,0.30
2023-03-12T12:27:37.384Z,0.70
2023-03-12T12:28:37.352Z,0.20
2023-03-12T12:29:37.454Z,0.40
2023-03-12T12:30:37.331Z,0.30
2023-03-12T12:31:37.359Z,0.30
2023-03-12T12:32:37.341Z,0.20
2023-03-12T12:33:37.333Z,0.30
2023-03-12T12:34:37.286Z,0.70
2023-03-12T12:35:37.413Z,0.30
2023-03-12T12:36:37.254Z,0.10
2023-03-12T12:37:37.244Z,0.30
2023-03-12T12:38:37.260Z,0.20
2023-03-12T12:39:37.321Z,0.20
2023-03-12T12:40:37.225Z,0.20
2023-03-12T12:41:37.220Z,0.80
2023-03-12T12:42:37.173Z,0.90
2023-03-12T12:43:37.173Z,0.40
2023-03-12T12:44:37.139Z,0.20
2023-03-12T12:45:37.201Z,0.40
2023-03-12T12:46:37.113Z,0.50
2023-03-12T12:47:37.164Z,0.40
2023-03-12T12:48:37.091Z,0.30
2023-03-12T12:49:37.105Z,0.40
2023-03-12T12:50:37.106Z,0.40
2023-03-12T12:51:37.090Z,0.50
2023-03-12T12:52:37.054Z,0.20
2023-03-12T12:53:37.048Z,0.30
2023-03-12T12:54:37.022Z,0.20
2023-03-12T12:55:37.061Z,1.00
2023-03-12T12:56:36.999Z,0.50
2023-03-12T12:57:37.003Z,0.40
2023-03-12T12:58:37.048Z,0.40
2023-03-12T12:59:36.971Z,0.20
2023-03-12T13:00:36.951Z,0.30
2023-03-12T13:01:37.007Z,0.30
2023-03-12T13:02:36.931Z,0.20
2023-03-12T13:03:36.896Z,0.20
2023-03-12T13:04:36.905Z,0.30
2023-03-12T13:05:36.907Z,0.20
2023-03-12T13:06:39.603Z,0.80
2023-03-12T13:07:36.840Z,0.30
2023-03-12T13:08:36.861Z,0.20
2023-03-12T13:09:36.851Z,0.20
2023-03-12T13:10:37.601Z,0.30
2023-03-12T13:11:36.787Z,0.40
2023-03-12T13:12:36.801Z,1.50
2023-03-12T13:13:36.769Z,0.70
2023-03-12T13:14:36.808Z,0.30
2023-03-12T13:15:36.761Z,0.70
2023-03-12T13:16:36.801Z,0.40
2023-03-12T13:17:36.774Z,0.30
2023-03-12T13:18:38.849Z,0.30
2023-03-12T13:19:36.691Z,0.50
2023-03-12T13:20:36.694Z,0.10
2023-03-12T13:21:36.653Z,0.30
2023-03-12T13:22:36.754Z,0.20
2023-03-12T13:23:36.627Z,0.20
2023-03-12T13:24:36.649Z,0.20
2023-03-12T13:25:36.603Z,0.30
2023-03-12T13:26:36.610Z,0.40
2023-03-12T13:27:36.590Z,1.50
2023-03-12T13:28:36.660Z,0.40
2023-03-12T13:29:36.586Z,0.30
2023-03-12T13:30:36.575Z,0.30
2023-03-12T13:31:36.632Z,0.40
2023-03-12T13:32:36.609Z,0.40
2023-03-12T13:33:36.546Z,0.40
2023-03-12T13:34:36.641Z,0.40
2023-03-12T13:35:36.639Z,0.80
2023-03-12T13:36:36.489Z,0.30
2023-03-12T13:37:36.460Z,1.10
2023-03-12T13:38:36.518Z,3.00
2023-03-12T13:39:36.420Z,0.60
2023-03-12T13:40:36.488Z,0.60
2023-03-12T13:41:36.391Z,0.20
2023-03-12T13:42:36.412Z,0.30
2023-03-12T13:43:36.376Z,0.70
2023-03-12T13:44:36.393Z,0.30
2023-03-12T13:45:36.339Z,0.20
2023-03-12T13:46:36.510Z,0.30
2023-03-12T13:47:36.325Z,0.70
2023-03-12T13:48:36.334Z,0.20
2023-03-12T13:49:36.289Z,0.30
2023-03-12T13:50:36.360Z,0.20
2023-03-12T13:51:36.260Z,0.20
2023-03-12T13:52:36.332Z,1.60
2023-03-12T13:53:37.611Z,1.10
2023-03-12T13:54:36.245Z,1.30
2023-03-12T13:55:36.257Z,0.30
2023-03-12T13:56:36.210Z,0.20
2023-03-12T13:57:38.773Z,0.30
2023-03-12T13:58:36.187Z,0.20
2023-03-12T13:59:36.177Z,0.50
2023-03-12T14:00:36.182Z,0.50
2023-03-12T14:01:36.250Z,0.30
2023-03-12T14:02:36.147Z,0.10
2023-03-12T14:03:37.481Z,0.80
2023-03-12T14:04:36.199Z,0.20
2023-03-12T14:05:36.090Z,1.10
2023-03-12T14:06:36.111Z,1.10
2023-03-12T14:07:36.097Z,0.20
2023-03-12T14:08:36.046Z,0.30
2023-03-12T14:09:36.826Z,1.50
2023-03-12T14:10:36.037Z,0.30
2023-03-12T14:11:36.004Z,0.10
2023-03-12T14:12:36.114Z,0.20
2023-03-12T14:13:35.989Z,0.30
2023-03-12T14:14:35.979Z,0.50
2023-03-12T14:15:36.134Z,0.50
2023-03-12T14:16:35.956Z,0.10
2023-03-12T14:17:35.965Z,0.30
2023-03-12T14:18:35.931Z,0.30
2023-03-12T14:19:35.888Z,0.40
2023-03-12T14:20:35.897Z,0.30
2023-03-12T14:21:35.966Z,0.20
2023-03-12T14:22:35.929Z,0.40
2023-03-12T14:23:35.847Z,0.20
2023-03-12T14:24:35.856Z,0.20
2023-03-12T14:25:35.831Z,0.50
2023-03-12T14:26:35.817Z,0.20
2023-03-12T14:27:35.827Z,0.60
2023-03-12T14:28:35.802Z,0.20
2023-03-12T14:29:35.777Z,0.30
2023-03-12T14:30:35.822Z,0.40
2023-03-12T14:31:35.827Z,0.20
2023-03-12T14:32:35.778Z,0.60
2023-03-12T14:33:35.736Z,0.40
2023-03-12T14:34:35.740Z,0.20
2023-03-12T14:35:35.738Z,0.30
2023-03-12T14:36:35.785Z,0.20
2023-03-12T14:37:35.662Z,0.30
2023-03-12T14:38:35.660Z,0.10
2023-03-12T14:39:35.636Z,0.40
2023-03-12T14:40:35.656Z,0.80
2023-03-12T14:41:35.608Z,0.20
2023-03-12T14:42:35.682Z,0.30
2023-03-12T14:43:35.584Z,0.20
2023-03-12T14:44:35.581Z,0.20
2023-03-12T14:45:35.567Z,0.20
2023-03-12T14:46:35.663Z,0.60
2023-03-12T14:47:35.524Z,0.90
2023-03-12T14:48:35.703Z,0.20
2023-03-12T14:49:35.497Z,0.30
2023-03-12T14:50:35.522Z,0.10
2023-03-12T14:51:35.533Z,0.20
2023-03-12T14:52:35.529Z,0.20
2023-03-12T14:53:35.443Z,0.20
2023-03-12T14:54:35.547Z,0.20
2023-03-12T14:55:35.428Z,0.40
2023-03-12T14:56:35.499Z,0.60
2023-03-12T14:57:35.407Z,0.30
2023-03-12T14:58:35.399Z,0.10
2023-03-12T14:59:35.388Z,0.40
2023-03-12T15:00:35.416Z,0.20
2023-03-12T15:01:35.352Z,0.20
2023-03-12T15:02:35.348Z,0.20
2023-03-12T15:03:35.311Z,0.20
2023-03-12T15:04:35.418Z,0.30
2023-03-12T15:05:35.285Z,0.40
2023-03-12T15:06:35.480Z,0.20
2023-03-12T15:07:35.265Z,1.00
2023-03-12T15:08:35.266Z,0.20
2023-03-12T15:09:35.242Z,0.40
2023-03-12T15:10:35.240Z,0.50
2023-03-12T15:11:35.239Z,0.30
2023-03-12T15:12:35.316Z,0.30
2023-03-12T15:13:35.187Z,0.50
2023-03-12T15:14:35.186Z,1.20
2023-03-12T15:15:35.158Z,0.30
2023-03-12T15:16:35.299Z,0.60
2023-03-12T15:17:35.156Z,0.40
2023-03-12T15:18:35.155Z,0.70
2023-03-12T15:19:35.105Z,0.40
2023-03-12T15:20:35.158Z,0.20
2023-03-12T15:21:35.098Z,0.30
2023-03-12T15:22:35.083Z,0.30
2023-03-12T15:23:35.080Z,0.20
2023-03-12T15:24:35.063Z,0.30
2023-03-12T15:25:35.048Z,0.30
2023-03-12T15:26:35.026Z,0.30
2023-03-12T15:27:35.038Z,0.50
2023-03-12T15:28:35.104Z,0.30
2023-03-12T15:29:34.976Z,0.40
2023-03-12T15:30:34.986Z,1.10
2023-03-12T15:31:35.105Z,0.40
2023-03-12T15:32:34.986Z,0.50
2023-03-12T15:33:34.935Z,0.40
2023-03-12T15:34:34.991Z,0.30
2023-03-12T15:35:35.036Z,0.40
2023-03-12T15:36:34.926Z,0.30
2023-03-12T15:37:34.934Z,0.30
2023-03-12T15:38:34.951Z,1.50
2023-03-12T15:39:34.991Z,0.50
2023-03-12T15:40:34.958Z,0.30
2023-03-12T15:41:34.819Z,0.50
2023-03-12T15:42:34.818Z,0.30
2023-03-12T15:43:34.772Z,0.20
2023-03-12T15:44:34.818Z,0.40
2023-03-12T15:45:34.918Z,1.20
2023-03-12T15:46:35.085Z,0.30
2023-03-12T15:47:34.734Z,1.70
2023-03-12T15:48:34.735Z,0.40
2023-03-12T15:49:34.719Z,0.30
2023-03-12T15:50:34.721Z,0.80
2023-03-12T15:51:34.692Z,0.40
2023-03-12T15:52:34.718Z,0.50
2023-03-12T15:53:34.657Z,0.50
2023-03-12T15:54:34.658Z,1.30
2023-03-12T15:55:34.683Z,0.40
2023-03-12T15:56:34.632Z,0.40
2023-03-12T15:57:34.592Z,0.30
2023-03-12T15:58:34.609Z,0.30
2023-03-12T15:59:34.570Z,0.40
2023-03-12T16:00:34.581Z,0.30
2023-03-12T16:01:34.646Z,0.30
2023-03-12T16:02:34.611Z,0.30
2023-03-12T16:03:34.517Z,0.60
2023-03-12T16:04:34.524Z,1.30
2023-03-12T16:05:34.578Z,0.40
2023-03-12T16:06:34.499Z,0.30
2023-03-12T16:07:34.487Z,0.70
2023-03-12T16:08:34.472Z,0.50
2023-03-12T16:09:34.449Z,0.70
2023-03-12T16:10:34.429Z,0.50
2023-03-12T16:11:34.472Z,0.70
2023-03-12T16:12:34.424Z,0.40
2023-03-12T16:13:34.391Z,0.30
2023-03-12T16:14:34.413Z,0.40
2023-03-12T16:15:34.368Z,0.50
2023-03-12T16:16:34.452Z,0.30
2023-03-12T16:17:34.414Z,3.90
2023-03-12T16:18:34.341Z,0.40
2023-03-12T16:19:34.408Z,0.40
2023-03-12T16:20:34.416Z,0.30
2023-03-12T16:21:34.289Z,0.40
2023-03-12T16:22:34.349Z,0.30
2023-03-12T16:23:34.277Z,2.50
2023-03-12T16:24:34.336Z,0.50
2023-03-12T16:25:34.236Z,0.30
2023-03-12T16:26:34.294Z,0.50
2023-03-12T16:27:34.212Z,0.90
2023-03-12T16:28:34.209Z,0.70
2023-03-12T16:29:34.168Z,0.50
2023-03-12T16:30:34.193Z,0.50
2023-03-12T16:31:34.229Z,0.50
2023-03-12T16:32:34.296Z,0.50
2023-03-12T16:33:34.130Z,0.60
2023-03-12T16:34:34.141Z,0.30
2023-03-12T16:35:34.114Z,0.70
2023-03-12T16:36:34.112Z,0.30
2023-03-12T16:37:34.084Z,0.40
2023-03-12T16:38:34.156Z,0.20
2023-03-12T16:39:34.134Z,0.30
2023-03-12T16:40:34.333Z,0.30
2023-03-12T16:41:34.017Z,0.40
2023-03-12T16:42:34.025Z,0.30
2023-03-12T16:43:33.993Z,1.30
2023-03-12T16:44:34.041Z,0.30
2023-03-12T16:45:33.979Z,0.40
2023-03-12T16:46:34.108Z,0.40
2023-03-12T16:47:33.949Z,0.20
2023-03-12T16:48:33.949Z,0.40
2023-03-12T16:49:34.053Z,0.70
2023-03-12T16:50:33.941Z,0.30
2023-03-12T16:51:33.892Z,1.00
2023-03-12T16:52:33.920Z,0.80
2023-03-12T16:53:33.883Z,0.40
2023-03-12T16:54:33.921Z,0.30
2023-03-12T16:55:33.847Z,1.80
2023-03-12T16:56:33.847Z,0.40
2023-03-12T16:57:33.815Z,3.80
2023-03-12T16:58:33.818Z,0.70
2023-03-12T16:59:33.806Z,0.50
2023-03-12T17:00:33.836Z,1.60
2023-03-12T17:01:33.766Z,0.50
2023-03-12T17:02:33.788Z,0.30
2023-03-12T17:03:35.570Z,0.40
2023-03-12T17:04:33.792Z,0.40
2023-03-12T17:05:33.809Z,0.40
2023-03-12T17:06:33.786Z,0.60
2023-03-12T17:07:33.716Z,0.80
2023-03-12T17:08:33.715Z,0.90
2023-03-12T17:09:33.665Z,0.60
2023-03-12T17:10:33.647Z,0.60
2023-03-12T17:11:33.686Z,0.50
2023-03-12T17:12:33.676Z,0.30
2023-03-12T17:13:33.624Z,2.20
2023-03-12T17:14:33.608Z,0.80
2023-03-12T17:15:33.779Z,0.50
2023-03-12T17:16:33.609Z,0.50
2023-03-12T17:17:33.572Z,1.70
2023-03-12T17:18:33.600Z,1.40
2023-03-12T17:19:33.569Z,0.50
2023-03-12T17:20:33.535Z,0.60
2023-03-12T17:21:33.535Z,0.30
2023-03-12T17:22:33.492Z,0.40
2023-03-12T17:23:33.523Z,0.50
2023-03-12T17:24:33.524Z,0.50
2023-03-12T17:25:33.511Z,1.70
2023-03-12T17:26:33.441Z,0.60
2023-03-12T17:27:33.472Z,0.70
2023-03-12T17:28:33.425Z,0.50
2023-03-12T17:29:33.462Z,0.60
2023-03-12T17:30:33.461Z,0.70
2023-03-12T17:31:33.498Z,0.90
2023-03-12T17:32:33.388Z,0.50
2023-03-12T17:33:33.373Z,1.00
2023-03-12T17:34:33.346Z,1.10
2023-03-12T17:35:33.468Z,0.40
2023-03-12T17:36:33.410Z,0.40
2023-03-12T17:37:33.320Z,0.40
2023-03-12T17:38:33.330Z,0.50
2023-03-12T17:39:33.301Z,1.40
2023-03-12T17:40:33.348Z,0.40
2023-03-12T17:41:33.265Z,1.70
2023-03-12T17:42:33.267Z,0.80
2023-03-12T17:43:33.228Z,0.80
2023-03-12T17:44:33.209Z,0.40
2023-03-12T17:45:33.236Z,0.90
2023-03-12T17:46:33.278Z,0.70
2023-03-12T17:47:33.213Z,0.40
2023-03-12T17:48:33.149Z,0.50
2023-03-12T17:49:33.198Z,0.40
2023-03-12T17:50:33.132Z,0.40
2023-03-12T17:51:33.138Z,0.50
2023-03-12T17:52:33.176Z,0.50
2023-03-12T17:53:33.114Z,0.90
2023-03-12T17:54:33.085Z,1.00
2023-03-12T17:55:33.086Z,0.70
2023-03-12T17:56:33.058Z,0.80
2023-03-12T17:57:33.070Z,0.60
2023-03-12T17:58:33.072Z,0.90
2023-03-12T17:59:33.047Z,0.70
2023-03-12T18:00:32.996Z,0.90
2023-03-12T18:01:33.016Z,0.60
2023-03-12T18:02:32.973Z,0.60
2023-03-12T18:03:33.037Z,0.60
2023-03-12T18:04:33.044Z,0.50
2023-03-12T18:05:33.018Z,1.00
2023-03-12T18:06:32.924Z,0.80
2023-03-12T18:07:32.923Z,0.40
2023-03-12T18:08:32.902Z,1.20
2023-03-12T18:09:32.896Z,0.60
2023-03-12T18:10:32.868Z,0.70
2023-03-12T18:11:32.947Z,0.40
2023-03-12T18:12:32.850Z,0.60
2023-03-12T18:13:33.205Z,0.50
2023-03-12T18:14:32.866Z,0.40
2023-03-12T18:15:32.821Z,0.50
2023-03-12T18:16:32.912Z,0.50
2023-03-12T18:17:32.800Z,0.40
2023-03-12T18:18:32.790Z,1.30